createdAt,value
2022-10-16T00:01:39.558Z,0.95
2022-10-16T00:04:06.538Z,0.77
2022-10-16T00:06:33.664Z,0.80
2022-10-16T00:09:01.237Z,0.90
2022-10-16T00:11:37.460Z,1.00
2022-10-16T00:14:11.928Z,0.80
2022-10-16T00:16:39.369Z,0.88
2022-10-16T00:19:06.545Z,0.80
2022-10-16T00:21:34.643Z,0.90
2022-10-16T00:24:20.250Z,0.80
2022-10-16T00:26:50.833Z,0.98
2022-10-16T00:29:17.751Z,0.82
2022-10-16T00:31:44.806Z,0.70
2022-10-16T00:34:11.998Z,0.80
2022-10-16T00:36:39.040Z,0.88
2022-10-16T00:39:06.326Z,0.90
2022-10-16T00:41:33.979Z,0.80
2022-10-16T00:44:04.926Z,1.08
2022-10-16T00:46:43.209Z,0.90
2022-10-16T00:49:19.623Z,0.88
2022-10-16T00:51:51.026Z,1.00
2022-10-16T00:54:26.920Z,0.80
2022-10-16T00:56:56.098Z,0.73
2022-10-16T00:59:49.965Z,0.80
2022-10-16T01:02:18.247Z,0.60
2022-10-16T01:04:51.118Z,0.77
2022-10-16T01:07:42.699Z,0.82
2022-10-16T01:10:41.779Z,0.68
2022-10-16T01:13:21.611Z,0.80
2022-10-16T01:16:07.449Z,0.70
2022-10-16T01:18:53.370Z,0.80
2022-10-16T01:21:35.938Z,0.85
2022-10-16T01:24:39.995Z,0.63
2022-10-16T01:27:26.151Z,0.80
2022-10-16T01:30:26.016Z,0.90
2022-10-16T01:33:19.957Z,0.80
2022-10-16T01:35:54.297Z,0.90
2022-10-16T01:38:36.179Z,0.93
2022-10-16T01:41:15.774Z,1.20
2022-10-16T01:44:05.845Z,0.80
2022-10-16T01:46:38.699Z,1.10
2022-10-16T01:49:09.843Z,1.00
2022-10-16T01:51:37.937Z,0.80
2022-10-16T01:54:09.058Z,0.85
2022-10-16T01:56:37.855Z,1.00
2022-10-16T01:59:20.878Z,1.02
2022-10-16T02:01:57.600Z,0.70
2022-10-16T02:04:46.302Z,0.88
2022-10-16T02:07:14.448Z,0.80
2022-10-16T02:09:41.854Z,0.88
2022-10-16T02:12:33.122Z,0.90
2022-10-16T02:15:00.283Z,0.70
2022-10-16T02:17:29.002Z,0.90
2022-10-16T02:19:58.925Z,0.80
2022-10-16T02:22:41.274Z,0.80
2022-10-16T02:25:25.355Z,0.47
2022-10-16T02:28:17.762Z,0.70
2022-10-16T02:31:00.738Z,0.70
2022-10-16T02:33:29.354Z,0.75
2022-10-16T02:35:57.797Z,0.70
2022-10-16T02:38:26.222Z,0.70
2022-10-16T02:40:53.879Z,0.80
2022-10-16T02:43:21.059Z,0.75
2022-10-16T02:45:48.017Z,0.60
2022-10-16T02:48:15.773Z,0.93
2022-10-16T02:50:42.727Z,0.60
2022-10-16T02:53:09.659Z,0.70
2022-10-16T02:55:36.604Z,0.77
2022-10-16T02:58:03.719Z,0.75
2022-10-16T03:00:30.667Z,0.90
2022-10-16T03:02:57.601Z,0.70
2022-10-16T03:05:24.610Z,0.82
2022-10-16T03:07:53.450Z,0.90
2022-10-16T03:10:20.602Z,0.75
2022-10-16T03:12:47.601Z,1.00
2022-10-16T03:15:14.633Z,0.80
2022-10-16T03:17:41.589Z,1.05
2022-10-16T03:20:08.983Z,1.02
2022-10-16T03:22:35.965Z,1.13
2022-10-16T03:25:03.229Z,1.05
2022-10-16T03:27:30.187Z,0.70
2022-10-16T03:29:57.340Z,0.90
2022-10-16T03:32:26.041Z,1.05
2022-10-16T03:34:55.088Z,0.82
2022-10-16T03:37:22.093Z,0.80
2022-10-16T03:39:49.034Z,0.80
2022-10-16T03:42:16.035Z,0.90
2022-10-16T03:44:42.955Z,0.80
2022-10-16T03:47:09.921Z,0.93
2022-10-16T03:49:36.825Z,0.93
2022-10-16T03:52:03.822Z,0.95
2022-10-16T03:54:30.811Z,0.80
2022-10-16T03:56:57.771Z,0.90
2022-10-16T03:59:24.735Z,0.88
2022-10-16T04:01:51.668Z,0.77
2022-10-16T04:04:18.923Z,0.95
2022-10-16T04:06:45.844Z,0.73
2022-10-16T04:09:12.841Z,0.98
2022-10-16T04:11:40.042Z,0.68
2022-10-16T04:14:07.000Z,0.68
2022-10-16T04:16:33.920Z,0.60
2022-10-16T04:19:00.964Z,0.70
2022-10-16T04:21:27.956Z,0.65
2022-10-16T04:23:54.909Z,0.80
2022-10-16T04:26:22.017Z,0.75
2022-10-16T04:28:49.085Z,0.70
2022-10-16T04:31:16.058Z,0.73
2022-10-16T04:33:46.380Z,0.88
2022-10-16T04:36:13.781Z,0.73
2022-10-16T04:38:40.834Z,0.57
2022-10-16T04:41:08.799Z,0.60
2022-10-16T04:43:35.824Z,0.73
2022-10-16T04:46:03.028Z,0.70
2022-10-16T04:48:29.974Z,0.65
2022-10-16T04:50:57.140Z,0.90
2022-10-16T04:53:24.306Z,0.73
2022-10-16T04:55:51.739Z,0.82
2022-10-16T04:58:18.830Z,0.65
2022-10-16T05:00:47.663Z,0.70
2022-10-16T05:03:15.122Z,0.63
2022-10-16T05:05:46.773Z,0.57
2022-10-16T05:08:15.489Z,0.70
2022-10-16T05:10:44.283Z,0.70
2022-10-16T05:13:11.957Z,0.80
2022-10-16T05:15:39.171Z,0.73
2022-10-16T05:18:06.175Z,0.70
2022-10-16T05:20:33.222Z,0.80
2022-10-16T05:23:00.283Z,0.55
2022-10-16T05:25:27.466Z,0.73
2022-10-16T05:27:54.436Z,0.73
2022-10-16T05:30:21.561Z,0.77
2022-10-16T05:32:49.916Z,1.20
2022-10-16T05:35:18.461Z,0.60
2022-10-16T05:37:45.633Z,0.80
2022-10-16T05:40:13.886Z,0.80
2022-10-16T05:42:41.461Z,0.70
2022-10-16T05:45:11.938Z,0.88
2022-10-16T05:47:38.988Z,0.60
2022-10-16T05:50:06.329Z,0.90
2022-10-16T05:52:33.269Z,0.57
2022-10-16T05:55:00.227Z,0.70
2022-10-16T05:57:27.421Z,0.88
2022-10-16T05:59:54.599Z,0.80
2022-10-16T06:02:21.575Z,0.73
2022-10-16T06:04:48.544Z,0.75
2022-10-16T06:07:15.602Z,0.60
2022-10-16T06:09:42.574Z,0.98
2022-10-16T06:12:09.542Z,0.63
2022-10-16T06:14:36.498Z,0.73
2022-10-16T06:17:03.479Z,0.80
2022-10-16T06:19:30.430Z,0.90
2022-10-16T06:21:58.979Z,0.80
2022-10-16T06:24:26.355Z,0.80
2022-10-16T06:26:53.275Z,0.60
2022-10-16T06:29:20.368Z,0.60
2022-10-16T06:31:47.304Z,0.77
2022-10-16T06:34:14.267Z,0.82
2022-10-16T06:36:42.322Z,0.90
2022-10-16T06:39:09.333Z,0.80
2022-10-16T06:41:36.358Z,0.80
2022-10-16T06:44:15.550Z,0.70
2022-10-16T06:46:42.527Z,1.17
2022-10-16T06:49:09.629Z,0.90
2022-10-16T06:51:43.098Z,0.70
2022-10-16T06:54:10.615Z,0.70
2022-10-16T06:56:37.619Z,0.90
2022-10-16T06:59:05.201Z,0.85
2022-10-16T07:01:33.028Z,0.77
2022-10-16T07:04:00.690Z,1.20
2022-10-16T07:06:31.629Z,0.77
2022-10-16T07:08:58.591Z,1.08
2022-10-16T07:11:25.606Z,0.70
2022-10-16T07:13:55.903Z,0.60
2022-10-16T07:16:32.695Z,0.60
2022-10-16T07:19:02.538Z,0.57
2022-10-16T07:21:38.219Z,0.60
2022-10-16T07:24:11.332Z,0.80
2022-10-16T07:26:40.184Z,0.75
2022-10-16T07:29:22.440Z,0.60
2022-10-16T07:31:50.670Z,0.60
2022-10-16T07:34:20.217Z,0.70
2022-10-16T07:36:50.574Z,0.70
2022-10-16T07:39:18.510Z,1.33
2022-10-16T07:41:45.640Z,0.55
2022-10-16T07:44:12.612Z,0.77
2022-10-16T07:46:39.593Z,0.80
2022-10-16T07:49:06.506Z,0.90
2022-10-16T07:51:33.892Z,0.80
2022-10-16T07:54:00.869Z,0.73
2022-10-16T07:56:27.833Z,0.88
2022-10-16T07:58:54.836Z,0.80
2022-10-16T08:01:21.869Z,0.60
2022-10-16T08:03:53.241Z,0.70
2022-10-16T08:06:26.773Z,0.60
2022-10-16T08:08:56.965Z,0.60
2022-10-16T08:11:24.447Z,0.63
2022-10-16T08:13:51.384Z,0.82
2022-10-16T08:16:18.842Z,0.85
2022-10-16T08:18:45.847Z,0.60
2022-10-16T08:21:21.774Z,1.00
2022-10-16T08:23:54.590Z,0.52
2022-10-16T08:26:24.531Z,0.60
2022-10-16T08:28:52.786Z,0.90
2022-10-16T08:31:20.464Z,0.75
2022-10-16T08:33:48.287Z,0.60
2022-10-16T08:36:16.938Z,0.80
2022-10-16T08:38:44.738Z,0.88
2022-10-16T08:41:14.400Z,0.80
2022-10-16T08:44:02.900Z,0.80
2022-10-16T08:47:04.494Z,0.63
2022-10-16T08:49:32.087Z,0.90
2022-10-16T08:51:59.479Z,0.70
2022-10-16T08:54:35.793Z,0.57
2022-10-16T08:57:24.485Z,0.57
2022-10-16T08:59:53.113Z,0.80
2022-10-16T09:02:32.692Z,0.70
2022-10-16T09:05:50.999Z,0.60
2022-10-16T09:08:39.589Z,0.70
2022-10-16T09:11:48.706Z,0.90
2022-10-16T09:14:58.898Z,0.80
2022-10-16T09:17:32.151Z,0.50
2022-10-16T09:20:27.135Z,0.80
2022-10-16T09:23:14.594Z,0.82
2022-10-16T09:25:48.521Z,0.77
2022-10-16T09:28:17.142Z,0.70
2022-10-16T09:30:45.136Z,0.80
2022-10-16T09:33:14.661Z,0.77
2022-10-16T09:35:51.169Z,0.57
2022-10-16T09:38:30.429Z,0.73
2022-10-16T09:41:03.122Z,0.70
2022-10-16T09:43:42.144Z,0.50
2022-10-16T09:46:32.710Z,0.70
2022-10-16T09:49:02.900Z,0.73
2022-10-16T09:51:32.454Z,0.73
2022-10-16T09:54:08.024Z,1.10
2022-10-16T09:56:39.699Z,0.98
2022-10-16T09:59:18.003Z,0.63
2022-10-16T10:01:52.826Z,0.90
2022-10-16T10:04:26.595Z,0.70
2022-10-16T10:06:58.254Z,0.57
2022-10-16T10:09:34.230Z,0.98
2022-10-16T10:14:41.117Z,0.95
2022-10-16T10:17:11.004Z,0.73
2022-10-16T10:19:49.349Z,1.17
2022-10-16T10:22:28.484Z,0.98
2022-10-16T10:25:13.544Z,0.90
2022-10-16T10:28:14.534Z,0.98
2022-10-16T10:31:00.687Z,0.95
2022-10-16T10:33:58.412Z,0.70
2022-10-16T10:36:41.730Z,0.88
2022-10-16T10:39:43.054Z,1.08
2022-10-16T10:42:20.034Z,1.00
2022-10-16T10:45:12.450Z,1.02
2022-10-16T10:47:54.360Z,1.00
2022-10-16T10:50:57.651Z,1.00
2022-10-16T10:53:51.183Z,1.20
2022-10-16T10:56:53.085Z,0.95
2022-10-16T11:00:28.246Z,0.90
2022-10-16T11:03:58.227Z,0.85
2022-10-16T11:06:49.463Z,0.75
2022-10-16T11:12:02.259Z,0.70
2022-10-16T11:14:37.011Z,0.80
2022-10-16T11:17:27.426Z,0.95
2022-10-16T11:20:23.411Z,0.98
2022-10-16T11:22:58.050Z,1.10
2022-10-16T11:25:32.452Z,1.00
2022-10-16T11:28:32.195Z,0.90
2022-10-16T11:31:20.207Z,0.80
2022-10-16T11:34:12.991Z,0.75
2022-10-16T11:37:03.975Z,1.00
2022-10-16T11:39:31.950Z,1.10
2022-10-16T11:42:19.943Z,1.20
2022-10-16T11:45:03.412Z,0.85
2022-10-16T11:47:58.780Z,1.00
2022-10-16T11:50:35.892Z,0.77
2022-10-16T11:53:25.171Z,1.10
2022-10-16T11:55:52.828Z,0.90
2022-10-16T11:59:10.130Z,0.85
2022-10-16T12:01:50.561Z,0.90
2022-10-16T12:04:46.138Z,0.93
2022-10-16T12:07:16.730Z,0.85
2022-10-16T12:09:43.956Z,0.88
2022-10-16T12:12:47.319Z,1.10
2022-10-16T12:15:34.886Z,0.80
2022-10-16T12:18:25.635Z,0.95
2022-10-16T12:21:05.439Z,0.70
2022-10-16T12:23:54.890Z,1.00
2022-10-16T12:26:32.315Z,0.90
2022-10-16T12:29:29.200Z,1.40
2022-10-16T12:31:58.318Z,1.20
2022-10-16T12:34:43.552Z,1.08
2022-10-16T12:37:39.019Z,1.17
2022-10-16T12:40:30.665Z,0.98
2022-10-16T12:42:58.183Z,1.10
2022-10-16T12:45:35.215Z,1.10
2022-10-16T12:48:18.894Z,1.15
2022-10-16T12:50:45.889Z,1.20
2022-10-16T12:53:27.009Z,1.20
2022-10-16T12:56:23.997Z,1.55
2022-10-16T12:59:44.043Z,2.65
2022-10-16T13:03:10.352Z,1.57
2022-10-16T13:05:57.120Z,0.90
2022-10-16T13:09:07.970Z,0.80
2022-10-16T13:12:18.246Z,0.95
2022-10-16T13:14:59.812Z,1.02
2022-10-16T13:18:00.546Z,0.85
2022-10-16T13:21:01.265Z,1.02
2022-10-16T13:24:09.183Z,1.30
2022-10-16T13:27:06.478Z,1.17
2022-10-16T13:29:34.890Z,1.30
2022-10-16T13:32:12.836Z,1.80
2022-10-16T13:34:49.755Z,1.67
2022-10-16T13:37:23.869Z,1.70
2022-10-16T13:39:54.101Z,1.20
2022-10-16T13:42:29.083Z,1.05
2022-10-16T13:44:57.414Z,0.93
2022-10-16T13:47:29.588Z,1.10
2022-10-16T13:50:12.176Z,0.85
2022-10-16T13:52:39.517Z,1.00
2022-10-16T13:55:16.637Z,0.90
2022-10-16T13:57:44.365Z,0.88
2022-10-16T14:00:24.322Z,0.90
2022-10-16T14:03:05.706Z,0.98
2022-10-16T14:05:33.561Z,1.00
2022-10-16T14:08:01.223Z,0.80
2022-10-16T14:10:32.086Z,1.30
2022-10-16T14:13:06.297Z,1.30
2022-10-16T14:15:36.521Z,0.93
2022-10-16T14:18:04.425Z,0.95
2022-10-16T14:20:35.057Z,1.13
2022-10-16T14:23:21.947Z,1.27
2022-10-16T14:25:49.181Z,1.10
2022-10-16T14:28:23.076Z,0.95
2022-10-16T14:31:21.771Z,0.98
2022-10-16T14:33:48.699Z,0.80
2022-10-16T14:36:19.450Z,0.85
2022-10-16T14:39:20.375Z,1.20
2022-10-16T14:41:50.190Z,1.10
2022-10-16T14:44:21.738Z,1.05
2022-10-16T14:46:48.981Z,1.20
2022-10-16T14:49:21.142Z,0.80
2022-10-16T14:51:49.100Z,0.88
2022-10-16T14:54:18.573Z,1.10
2022-10-16T14:56:56.382Z,0.75
2022-10-16T14:59:41.429Z,1.38
2022-10-16T15:02:37.517Z,1.13
2022-10-16T15:05:25.601Z,0.70
2022-10-16T15:07:55.776Z,1.25
2022-10-16T15:10:25.197Z,1.02
2022-10-16T15:12:52.917Z,1.20
2022-10-16T15:15:42.537Z,0.80
2022-10-16T15:18:09.471Z,0.90
2022-10-16T15:20:39.018Z,0.90
2022-10-16T15:23:17.972Z,0.95
2022-10-16T15:25:47.853Z,0.85
2022-10-16T15:28:16.712Z,0.88
2022-10-16T15:30:46.245Z,0.88
2022-10-16T15:33:20.123Z,0.93
2022-10-16T15:35:52.214Z,0.88
2022-10-16T15:38:21.961Z,1.05
2022-10-16T15:40:49.945Z,0.77
2022-10-16T15:43:17.247Z,0.90
2022-10-16T15:45:44.168Z,0.80
2022-10-16T15:48:14.745Z,0.75
2022-10-16T15:53:08.916Z,0.70
2022-10-16T15:55:38.697Z,0.80
2022-10-16T15:58:06.430Z,0.80
2022-10-16T16:00:33.775Z,0.65
2022-10-16T16:03:00.814Z,1.00
2022-10-16T16:05:28.447Z,0.88
2022-10-16T16:07:55.428Z,0.77
2022-10-16T16:10:22.552Z,1.13
2022-10-16T16:12:52.818Z,0.80
2022-10-16T16:15:21.647Z,0.85
2022-10-16T16:17:49.337Z,0.93
2022-10-16T16:20:16.648Z,0.85
2022-10-16T16:22:43.680Z,0.95
2022-10-16T16:25:11.015Z,0.80
2022-10-16T16:27:39.393Z,1.00
2022-10-16T16:30:16.744Z,0.80
2022-10-16T16:32:46.542Z,1.00
2022-10-16T16:35:13.474Z,0.82
2022-10-16T16:37:40.390Z,0.93
2022-10-16T16:40:07.553Z,0.77
2022-10-16T16:42:34.463Z,1.00
2022-10-16T16:45:01.472Z,0.63
2022-10-16T16:47:28.802Z,0.90
2022-10-16T16:49:56.026Z,0.90
2022-10-16T16:52:23.329Z,0.90
2022-10-16T16:54:52.862Z,0.88
2022-10-16T16:57:21.090Z,0.75
2022-10-16T16:59:50.633Z,0.93
2022-10-16T17:02:18.114Z,0.88
2022-10-16T17:04:45.177Z,0.75
2022-10-16T17:07:12.224Z,0.90
2022-10-16T17:09:39.544Z,1.00
2022-10-16T17:12:06.436Z,1.05
2022-10-16T17:14:33.417Z,0.80
2022-10-16T17:17:00.405Z,0.90
2022-10-16T17:19:27.501Z,1.02
2022-10-16T17:21:54.487Z,1.45
2022-10-16T17:24:21.741Z,1.20
2022-10-16T17:26:49.464Z,0.98
2022-10-16T17:29:18.351Z,1.20
2022-10-16T17:31:46.020Z,1.00
2022-10-16T17:34:13.357Z,1.05
2022-10-16T17:36:46.718Z,1.38
2022-10-16T17:39:17.680Z,1.10
2022-10-16T17:41:45.459Z,1.00
2022-10-16T17:44:20.136Z,1.10
2022-10-16T17:46:50.024Z,0.98
2022-10-16T17:49:18.234Z,1.08
2022-10-16T17:51:45.588Z,1.00
2022-10-16T17:54:14.511Z,1.00
2022-10-16T17:56:42.141Z,0.85
2022-10-16T17:59:11.959Z,1.20
2022-10-16T18:01:41.433Z,1.20
2022-10-16T18:04:12.957Z,1.10
2022-10-16T18:06:41.601Z,1.10
2022-10-16T18:09:10.628Z,1.00
2022-10-16T18:11:38.092Z,1.42
2022-10-16T18:14:05.445Z,1.15
2022-10-16T18:16:33.224Z,1.15
2022-10-16T18:19:00.250Z,1.17
2022-10-16T18:21:28.488Z,1.20
2022-10-16T18:23:57.439Z,1.15
2022-10-16T18:26:25.113Z,0.90
2022-10-16T18:28:57.194Z,0.90
2022-10-16T18:31:26.340Z,1.17
2022-10-16T18:33:54.246Z,0.90
2022-10-16T18:36:32.992Z,1.02
2022-10-16T18:39:04.357Z,0.95
2022-10-16T18:41:32.613Z,1.08
2022-10-16T18:43:59.573Z,0.85
2022-10-16T18:46:27.192Z,1.20
2022-10-16T18:48:57.413Z,0.80
2022-10-16T18:51:37.592Z,0.80
2022-10-16T18:54:10.712Z,0.95
2022-10-16T18:56:39.035Z,1.05
2022-10-16T18:59:08.091Z,1.10
2022-10-16T19:01:38.615Z,1.15
2022-10-16T19:06:39.669Z,1.05
2022-10-16T19:09:07.130Z,1.30
2022-10-16T19:11:39.222Z,0.90
2022-10-16T19:14:08.752Z,1.27
2022-10-16T19:16:37.193Z,1.00
2022-10-16T19:19:08.784Z,0.98
2022-10-16T19:21:39.938Z,1.10
2022-10-16T19:24:08.955Z,1.05
2022-10-16T19:26:38.200Z,1.00
2022-10-16T19:29:09.208Z,1.00
2022-10-16T19:31:36.219Z,1.05
2022-10-16T19:34:06.139Z,1.20
2022-10-16T19:36:38.710Z,1.20
2022-10-16T19:39:12.305Z,1.02
2022-10-16T19:41:39.787Z,1.20
2022-10-16T19:44:11.162Z,1.13
2022-10-16T19:46:38.431Z,1.35
2022-10-16T19:49:10.595Z,0.95
2022-10-16T19:51:39.213Z,1.00
2022-10-16T19:54:13.870Z,1.15
2022-10-16T19:56:42.269Z,1.17
2022-10-16T19:59:13.339Z,1.30
2022-10-16T20:01:40.436Z,1.30
2022-10-16T20:04:07.440Z,1.15
2022-10-16T20:06:34.423Z,1.40
2022-10-16T20:09:01.484Z,1.05
2022-10-16T20:11:34.865Z,1.10
2022-10-16T20:14:02.782Z,1.30
2022-10-16T20:16:30.835Z,1.15
2022-10-16T20:18:59.091Z,1.02
2022-10-16T20:21:29.996Z,1.10
2022-10-16T20:23:57.580Z,1.17
2022-10-16T20:26:26.166Z,1.20
2022-10-16T20:28:54.526Z,1.48
2022-10-16T20:31:25.802Z,1.13
2022-10-16T20:33:55.265Z,1.00
2022-10-16T20:36:24.698Z,1.20
2022-10-16T20:38:52.657Z,1.50
2022-10-16T20:41:20.099Z,1.17
2022-10-16T20:43:49.849Z,1.20
2022-10-16T20:46:23.783Z,1.30
2022-10-16T20:48:51.450Z,1.17
2022-10-16T20:51:26.697Z,1.27
2022-10-16T20:54:02.220Z,1.23
2022-10-16T20:56:31.983Z,1.20
2022-10-16T20:58:59.023Z,1.40
2022-10-16T21:01:29.064Z,1.20
2022-10-16T21:03:59.918Z,1.08
2022-10-16T21:06:27.492Z,1.15
2022-10-16T21:08:54.905Z,1.08
2022-10-16T21:11:27.596Z,1.30
2022-10-16T21:13:58.289Z,1.17
2022-10-16T21:18:53.213Z,1.38
2022-10-16T21:21:29.518Z,1.30
2022-10-16T21:23:58.817Z,1.33
2022-10-16T21:26:27.143Z,1.33
2022-10-16T21:29:01.182Z,1.30
2022-10-16T21:31:28.721Z,1.42
2022-10-16T21:33:56.513Z,1.08
2022-10-16T21:36:36.090Z,1.20
2022-10-16T21:39:16.808Z,1.20
2022-10-16T21:44:13.625Z,1.27
2022-10-16T21:46:43.332Z,1.30
2022-10-16T21:49:17.110Z,1.27
2022-10-16T21:51:48.123Z,1.38
2022-10-16T21:54:19.362Z,1.20
2022-10-16T21:56:46.566Z,1.15
2022-10-16T21:59:14.609Z,1.00
2022-10-16T22:01:42.907Z,1.10
2022-10-16T22:04:15.560Z,0.95
2022-10-16T22:06:42.737Z,1.30
2022-10-16T22:09:14.499Z,1.20
2022-10-16T22:11:44.474Z,1.48
2022-10-16T22:14:15.422Z,1.20
2022-10-16T22:16:43.337Z,1.20
2022-10-16T22:19:13.529Z,1.35
2022-10-16T22:21:42.313Z,1.40
2022-10-16T22:24:09.969Z,1.20
2022-10-16T22:26:38.015Z,1.48
2022-10-16T22:29:05.957Z,1.40
2022-10-16T22:31:33.486Z,1.20
2022-10-16T22:34:03.397Z,1.25
2022-10-16T22:36:31.466Z,1.17
2022-10-16T22:38:59.259Z,1.20
2022-10-16T22:41:26.274Z,1.05
2022-10-16T22:43:53.299Z,1.17
2022-10-16T22:46:24.408Z,1.23
2022-10-16T22:48:52.155Z,1.35
2022-10-16T22:51:19.535Z,1.10
2022-10-16T22:53:48.856Z,1.08
2022-10-16T22:56:17.781Z,1.33
2022-10-16T22:58:44.980Z,1.33
2022-10-16T23:01:32.206Z,1.50
2022-10-16T23:04:01.224Z,1.80
2022-10-16T23:06:28.722Z,1.20
2022-10-16T23:08:59.473Z,1.48
2022-10-16T23:13:55.370Z,1.60
2022-10-16T23:16:23.188Z,1.38
2022-10-16T23:18:50.747Z,1.35
2022-10-16T23:21:24.324Z,1.10
2022-10-16T23:23:53.618Z,1.15
2022-10-16T23:26:26.767Z,1.33
2022-10-16T23:28:58.419Z,1.58
2022-10-16T23:31:26.038Z,1.38
2022-10-16T23:33:53.186Z,1.25
2022-10-16T23:36:22.351Z,1.27
2022-10-16T23:38:50.222Z,1.25
2022-10-16T23:41:19.221Z,1.20
2022-10-16T23:43:46.704Z,1.08
2022-10-16T23:46:15.139Z,1.20
2022-10-16T23:48:42.504Z,1.20
2022-10-16T23:51:10.278Z,1.15
2022-10-16T23:53:37.579Z,1.20
2022-10-16T23:56:05.037Z,1.25
2022-10-16T23:58:31.974Z,1.27
